sensor_id;sensor_type;location;lat;lon;timestamp;P1;durP1;ratioP1;P2;durP2;ratioP2
13475;SDS011;6810;63.824;20.288;2022-11-27T00:01:39;5.63;;;3.40;;
13475;SDS011;6810;63.824;20.288;2022-11-27T00:04:26;6.57;;;3.33;;
13475;SDS011;6810;63.824;20.288;2022-11-27T00:07:12;6.47;;;3.33;;
13475;SDS011;6810;63.824;20.288;2022-11-27T00:09:59;5.47;;;3.47;;
13475;SDS011;6810;63.824;20.288;2022-11-27T00:12:46;6.20;;;3.67;;
13475;SDS011;6810;63.824;20.288;2022-11-27T00:15:33;5.07;;;3.60;;
13475;SDS011;6810;63.824;20.288;2022-11-27T00:18:20;4.63;;;3.37;;
13475;SDS011;6810;63.824;20.288;2022-11-27T00:21:08;5.30;;;3.20;;
13475;SDS011;6810;63.824;20.288;2022-11-27T00:23:58;4.87;;;3.50;;
13475;SDS011;6810;63.824;20.288;2022-11-27T00:26:45;5.13;;;3.37;;
13475;SDS011;6810;63.824;20.288;2022-11-27T00:29:32;4.97;;;3.00;;
13475;SDS011;6810;63.824;20.288;2022-11-27T00:32:19;5.67;;;3.27;;
13475;SDS011;6810;63.824;20.288;2022-11-27T00:35:06;4.23;;;2.87;;
13475;SDS011;6810;63.824;20.288;2022-11-27T00:37:53;4.47;;;3.03;;
13475;SDS011;6810;63.824;20.288;2022-11-27T00:40:40;4.60;;;3.30;;
13475;SDS011;6810;63.824;20.288;2022-11-27T00:43:26;4.83;;;3.30;;
13475;SDS011;6810;63.824;20.288;2022-11-27T00:46:17;4.80;;;3.13;;
13475;SDS011;6810;63.824;20.288;2022-11-27T00:49:06;5.50;;;3.17;;
13475;SDS011;6810;63.824;20.288;2022-11-27T00:51:54;4.77;;;3.13;;
13475;SDS011;6810;63.824;20.288;2022-11-27T00:54:40;3.93;;;2.97;;
13475;SDS011;6810;63.824;20.288;2022-11-27T00:57:27;5.10;;;3.53;;
13475;SDS011;6810;63.824;20.288;2022-11-27T01:00:14;5.13;;;3.03;;
13475;SDS011;6810;63.824;20.288;2022-11-27T01:03:01;5.17;;;3.53;;
13475;SDS011;6810;63.824;20.288;2022-11-27T01:05:48;4.40;;;3.20;;
13475;SDS011;6810;63.824;20.288;2022-11-27T01:08:36;4.57;;;2.90;;
13475;SDS011;6810;63.824;20.288;2022-11-27T01:11:24;5.07;;;3.40;;
13475;SDS011;6810;63.824;20.288;2022-11-27T01:14:14;5.83;;;3.60;;
13475;SDS011;6810;63.824;20.288;2022-11-27T01:17:03;4.83;;;3.40;;
13475;SDS011;6810;63.824;20.288;2022-11-27T01:19:49;5.20;;;3.70;;
13475;SDS011;6810;63.824;20.288;2022-11-27T01:22:36;6.40;;;3.87;;
13475;SDS011;6810;63.824;20.288;2022-11-27T01:25:23;4.57;;;3.10;;
13475;SDS011;6810;63.824;20.288;2022-11-27T01:28:10;5.83;;;4.03;;
13475;SDS011;6810;63.824;20.288;2022-11-27T01:30:37;5.27;;;3.33;;
13475;SDS011;6810;63.824;20.288;2022-11-27T01:33:24;5.27;;;3.43;;
13475;SDS011;6810;63.824;20.288;2022-11-27T01:36:14;5.07;;;3.57;;
13475;SDS011;6810;63.824;20.288;2022-11-27T01:39:02;5.87;;;3.73;;
13475;SDS011;6810;63.824;20.288;2022-11-27T01:41:49;6.93;;;3.57;;
13475;SDS011;6810;63.824;20.288;2022-11-27T01:47:28;5.10;;;3.40;;
13475;SDS011;6810;63.824;20.288;2022-11-27T01:50:21;5.90;;;3.83;;
13475;SDS011;6810;63.824;20.288;2022-11-27T01:53:14;5.33;;;3.63;;
13475;SDS011;6810;63.824;20.288;2022-11-27T01:56:04;5.93;;;4.20;;
13475;SDS011;6810;63.824;20.288;2022-11-27T01:58:51;5.60;;;4.20;;
13475;SDS011;6810;63.824;20.288;2022-11-27T02:01:38;4.93;;;3.50;;
13475;SDS011;6810;63.824;20.288;2022-11-27T02:04:25;5.30;;;3.90;;
13475;SDS011;6810;63.824;20.288;2022-11-27T02:07:11;6.33;;;3.93;;
13475;SDS011;6810;63.824;20.288;2022-11-27T02:09:59;5.13;;;3.83;;
13475;SDS011;6810;63.824;20.288;2022-11-27T02:15:56;5.80;;;3.53;;
13475;SDS011;6810;63.824;20.288;2022-11-27T02:18:55;4.93;;;3.50;;
13475;SDS011;6810;63.824;20.288;2022-11-27T02:24:54;5.80;;;3.67;;
13475;SDS011;6810;63.824;20.288;2022-11-27T02:31:08;4.33;;;3.57;;
13475;SDS011;6810;63.824;20.288;2022-11-27T02:34:09;4.30;;;3.63;;
13475;SDS011;6810;63.824;20.288;2022-11-27T02:37:38;6.77;;;3.73;;
13475;SDS011;6810;63.824;20.288;2022-11-27T02:40:33;5.40;;;3.43;;
13475;SDS011;6810;63.824;20.288;2022-11-27T02:43:44;4.87;;;3.37;;
13475;SDS011;6810;63.824;20.288;2022-11-27T02:46:33;5.90;;;3.93;;
13475;SDS011;6810;63.824;20.288;2022-11-27T02:49:20;5.27;;;3.80;;
13475;SDS011;6810;63.824;20.288;2022-11-27T02:52:07;5.80;;;3.93;;
13475;SDS011;6810;63.824;20.288;2022-11-27T02:54:57;6.13;;;4.17;;
13475;SDS011;6810;63.824;20.288;2022-11-27T02:57:50;4.37;;;3.47;;
13475;SDS011;6810;63.824;20.288;2022-11-27T03:00:39;5.37;;;3.83;;
13475;SDS011;6810;63.824;20.288;2022-11-27T03:03:31;4.20;;;3.17;;
13475;SDS011;6810;63.824;20.288;2022-11-27T03:06:45;4.97;;;3.57;;
13475;SDS011;6810;63.824;20.288;2022-11-27T03:09:36;5.73;;;3.53;;
13475;SDS011;6810;63.824;20.288;2022-11-27T03:12:29;4.50;;;3.67;;
13475;SDS011;6810;63.824;20.288;2022-11-27T03:15:16;6.07;;;4.10;;
13475;SDS011;6810;63.824;20.288;2022-11-27T03:18:19;5.77;;;4.03;;
13475;SDS011;6810;63.824;20.288;2022-11-27T03:21:26;4.67;;;3.87;;
13475;SDS011;6810;63.824;20.288;2022-11-27T03:24:15;5.27;;;3.83;;
13475;SDS011;6810;63.824;20.288;2022-11-27T03:27:02;5.63;;;4.17;;
13475;SDS011;6810;63.824;20.288;2022-11-27T03:29:59;5.73;;;3.93;;
13475;SDS011;6810;63.824;20.288;2022-11-27T03:32:47;5.17;;;3.67;;
13475;SDS011;6810;63.824;20.288;2022-11-27T03:35:35;5.87;;;3.80;;
13475;SDS011;6810;63.824;20.288;2022-11-27T03:38:22;5.30;;;3.73;;
13475;SDS011;6810;63.824;20.288;2022-11-27T03:41:12;5.83;;;4.30;;
13475;SDS011;6810;63.824;20.288;2022-11-27T03:47:53;5.67;;;3.60;;
13475;SDS011;6810;63.824;20.288;2022-11-27T03:51:06;6.43;;;3.93;;
13475;SDS011;6810;63.824;20.288;2022-11-27T03:54:04;6.33;;;3.90;;
13475;SDS011;6810;63.824;20.288;2022-11-27T03:57:04;7.13;;;4.03;;
13475;SDS011;6810;63.824;20.288;2022-11-27T04:00:06;5.77;;;3.80;;
13475;SDS011;6810;63.824;20.288;2022-11-27T04:02:54;7.60;;;4.40;;
13475;SDS011;6810;63.824;20.288;2022-11-27T04:05:41;6.13;;;4.33;;
13475;SDS011;6810;63.824;20.288;2022-11-27T04:08:28;5.07;;;4.13;;
13475;SDS011;6810;63.824;20.288;2022-11-27T04:11:15;10.13;;;4.60;;
13475;SDS011;6810;63.824;20.288;2022-11-27T04:14:02;7.43;;;4.50;;
13475;SDS011;6810;63.824;20.288;2022-11-27T04:16:49;7.97;;;4.20;;
13475;SDS011;6810;63.824;20.288;2022-11-27T04:19:35;6.73;;;4.30;;
13475;SDS011;6810;63.824;20.288;2022-11-27T04:22:22;6.40;;;4.13;;
13475;SDS011;6810;63.824;20.288;2022-11-27T04:25:09;5.97;;;4.10;;
13475;SDS011;6810;63.824;20.288;2022-11-27T04:27:56;6.27;;;4.13;;
13475;SDS011;6810;63.824;20.288;2022-11-27T04:30:43;5.83;;;3.97;;
13475;SDS011;6810;63.824;20.288;2022-11-27T04:33:30;6.57;;;4.23;;
13475;SDS011;6810;63.824;20.288;2022-11-27T04:36:17;5.10;;;3.63;;
13475;SDS011;6810;63.824;20.288;2022-11-27T04:39:05;7.83;;;4.00;;
13475;SDS011;6810;63.824;20.288;2022-11-27T04:41:51;6.03;;;3.93;;
13475;SDS011;6810;63.824;20.288;2022-11-27T04:44:38;5.23;;;4.27;;
13475;SDS011;6810;63.824;20.288;2022-11-27T04:47:25;5.77;;;3.60;;
13475;SDS011;6810;63.824;20.288;2022-11-27T04:50:12;5.47;;;3.53;;
13475;SDS011;6810;63.824;20.288;2022-11-27T04:52:58;7.63;;;3.97;;
13475;SDS011;6810;63.824;20.288;2022-11-27T04:55:45;6.57;;;3.70;;
13475;SDS011;6810;63.824;20.288;2022-11-27T04:58:32;7.33;;;3.90;;
13475;SDS011;6810;63.824;20.288;2022-11-27T05:01:19;7.23;;;4.20;;
13475;SDS011;6810;63.824;20.288;2022-11-27T05:04:06;5.53;;;3.63;;
13475;SDS011;6810;63.824;20.288;2022-11-27T05:06:52;7.90;;;4.33;;
13475;SDS011;6810;63.824;20.288;2022-11-27T05:09:39;5.50;;;3.50;;
13475;SDS011;6810;63.824;20.288;2022-11-27T05:12:26;5.10;;;3.90;;
13475;SDS011;6810;63.824;20.288;2022-11-27T05:15:13;5.30;;;3.60;;
13475;SDS011;6810;63.824;20.288;2022-11-27T05:17:59;7.13;;;3.90;;
13475;SDS011;6810;63.824;20.288;2022-11-27T05:20:46;5.47;;;3.33;;
13475;SDS011;6810;63.824;20.288;2022-11-27T05:23:33;6.07;;;4.03;;
13475;SDS011;6810;63.824;20.288;2022-11-27T05:26:20;5.17;;;3.70;;
13475;SDS011;6810;63.824;20.288;2022-11-27T05:29:07;5.93;;;3.67;;
13475;SDS011;6810;63.824;20.288;2022-11-27T05:31:55;5.63;;;4.07;;
13475;SDS011;6810;63.824;20.288;2022-11-27T05:34:42;5.70;;;4.27;;
13475;SDS011;6810;63.824;20.288;2022-11-27T05:37:29;5.37;;;3.73;;
13475;SDS011;6810;63.824;20.288;2022-11-27T05:40:15;5.07;;;3.70;;
13475;SDS011;6810;63.824;20.288;2022-11-27T05:43:02;6.20;;;4.23;;
13475;SDS011;6810;63.824;20.288;2022-11-27T05:45:49;6.33;;;4.30;;
13475;SDS011;6810;63.824;20.288;2022-11-27T05:48:36;6.27;;;4.00;;
13475;SDS011;6810;63.824;20.288;2022-11-27T05:51:24;6.67;;;4.63;;
13475;SDS011;6810;63.824;20.288;2022-11-27T05:54:16;7.27;;;4.10;;
13475;SDS011;6810;63.824;20.288;2022-11-27T05:57:04;5.47;;;4.10;;
13475;SDS011;6810;63.824;20.288;2022-11-27T05:59:51;7.57;;;4.57;;
13475;SDS011;6810;63.824;20.288;2022-11-27T06:02:38;6.03;;;4.07;;
13475;SDS011;6810;63.824;20.288;2022-11-27T06:05:25;5.43;;;4.00;;
13475;SDS011;6810;63.824;20.288;2022-11-27T06:08:11;6.80;;;3.93;;
13475;SDS011;6810;63.824;20.288;2022-11-27T06:10:58;5.47;;;4.03;;
13475;SDS011;6810;63.824;20.288;2022-11-27T06:13:45;5.63;;;3.93;;
13475;SDS011;6810;63.824;20.288;2022-11-27T06:16:33;6.87;;;4.27;;
13475;SDS011;6810;63.824;20.288;2022-11-27T06:19:20;6.10;;;4.53;;
13475;SDS011;6810;63.824;20.288;2022-11-27T06:22:07;7.57;;;4.43;;
13475;SDS011;6810;63.824;20.288;2022-11-27T06:24:54;8.00;;;4.67;;
13475;SDS011;6810;63.824;20.288;2022-11-27T06:27:41;5.00;;;3.60;;
13475;SDS011;6810;63.824;20.288;2022-11-27T06:30:27;6.33;;;4.17;;
13475;SDS011;6810;63.824;20.288;2022-11-27T06:33:14;8.17;;;4.87;;
13475;SDS011;6810;63.824;20.288;2022-11-27T06:36:01;6.13;;;4.33;;
13475;SDS011;6810;63.824;20.288;2022-11-27T06:38:49;6.73;;;4.77;;
13475;SDS011;6810;63.824;20.288;2022-11-27T06:41:36;8.10;;;4.63;;
13475;SDS011;6810;63.824;20.288;2022-11-27T06:44:23;6.77;;;4.73;;
13475;SDS011;6810;63.824;20.288;2022-11-27T06:47:10;7.80;;;4.50;;
13475;SDS011;6810;63.824;20.288;2022-11-27T06:49:57;5.73;;;4.27;;
13475;SDS011;6810;63.824;20.288;2022-11-27T06:52:43;8.43;;;4.87;;
13475;SDS011;6810;63.824;20.288;2022-11-27T06:55:30;7.87;;;4.67;;
13475;SDS011;6810;63.824;20.288;2022-11-27T06:58:17;7.97;;;4.90;;
13475;SDS011;6810;63.824;20.288;2022-11-27T07:01:05;7.93;;;5.27;;
13475;SDS011;6810;63.824;20.288;2022-11-27T07:03:55;8.63;;;5.63;;
13475;SDS011;6810;63.824;20.288;2022-11-27T07:06:43;7.00;;;4.80;;
13475;SDS011;6810;63.824;20.288;2022-11-27T07:09:29;6.13;;;4.13;;
13475;SDS011;6810;63.824;20.288;2022-11-27T07:12:16;6.37;;;4.77;;
13475;SDS011;6810;63.824;20.288;2022-11-27T07:15:03;8.10;;;4.87;;
13475;SDS011;6810;63.824;20.288;2022-11-27T07:17:50;7.83;;;4.90;;
13475;SDS011;6810;63.824;20.288;2022-11-27T07:20:37;6.83;;;4.37;;
13475;SDS011;6810;63.824;20.288;2022-11-27T07:23:23;8.63;;;4.70;;
13475;SDS011;6810;63.824;20.288;2022-11-27T07:26:11;4.60;;;3.50;;
13475;SDS011;6810;63.824;20.288;2022-11-27T07:29:00;7.40;;;4.20;;
13475;SDS011;6810;63.824;20.288;2022-11-27T07:31:47;5.70;;;4.20;;
13475;SDS011;6810;63.824;20.288;2022-11-27T07:34:34;6.70;;;4.53;;
13475;SDS011;6810;63.824;20.288;2022-11-27T07:37:20;7.83;;;4.23;;
13475;SDS011;6810;63.824;20.288;2022-11-27T07:40:07;7.90;;;4.20;;
13475;SDS011;6810;63.824;20.288;2022-11-27T07:42:54;5.90;;;4.07;;
13475;SDS011;6810;63.824;20.288;2022-11-27T07:45:41;6.03;;;3.87;;
13475;SDS011;6810;63.824;20.288;2022-11-27T07:48:30;5.30;;;3.60;;
13475;SDS011;6810;63.824;20.288;2022-11-27T07:51:17;5.37;;;4.00;;
13475;SDS011;6810;63.824;20.288;2022-11-27T07:54:06;6.43;;;4.20;;
13475;SDS011;6810;63.824;20.288;2022-11-27T07:56:53;6.63;;;4.40;;
13475;SDS011;6810;63.824;20.288;2022-11-27T07:59:40;5.63;;;4.27;;
13475;SDS011;6810;63.824;20.288;2022-11-27T08:02:29;5.37;;;4.00;;
13475;SDS011;6810;63.824;20.288;2022-11-27T08:05:16;5.73;;;4.00;;
13475;SDS011;6810;63.824;20.288;2022-11-27T08:08:03;6.10;;;3.83;;
13475;SDS011;6810;63.824;20.288;2022-11-27T08:10:50;6.37;;;4.03;;
13475;SDS011;6810;63.824;20.288;2022-11-27T08:13:37;7.37;;;4.23;;
13475;SDS011;6810;63.824;20.288;2022-11-27T08:16:23;6.13;;;4.20;;
13475;SDS011;6810;63.824;20.288;2022-11-27T08:19:11;6.20;;;3.90;;
13475;SDS011;6810;63.824;20.288;2022-11-27T08:21:57;7.03;;;4.20;;
13475;SDS011;6810;63.824;20.288;2022-11-27T08:24:44;5.57;;;3.83;;
13475;SDS011;6810;63.824;20.288;2022-11-27T08:27:31;5.10;;;3.63;;
13475;SDS011;6810;63.824;20.288;2022-11-27T08:30:18;6.50;;;4.17;;
13475;SDS011;6810;63.824;20.288;2022-11-27T08:33:05;6.63;;;3.80;;
13475;SDS011;6810;63.824;20.288;2022-11-27T08:35:51;6.37;;;4.33;;
13475;SDS011;6810;63.824;20.288;2022-11-27T08:38:44;6.23;;;4.23;;
13475;SDS011;6810;63.824;20.288;2022-11-27T08:41:31;6.80;;;4.60;;
13475;SDS011;6810;63.824;20.288;2022-11-27T08:44:18;5.83;;;4.40;;
13475;SDS011;6810;63.824;20.288;2022-11-27T08:47:05;5.93;;;4.93;;
13475;SDS011;6810;63.824;20.288;2022-11-27T08:49:52;6.60;;;4.67;;
13475;SDS011;6810;63.824;20.288;2022-11-27T08:52:39;8.93;;;5.30;;
13475;SDS011;6810;63.824;20.288;2022-11-27T08:55:25;7.23;;;4.70;;
13475;SDS011;6810;63.824;20.288;2022-11-27T08:58:12;6.73;;;4.43;;
13475;SDS011;6810;63.824;20.288;2022-11-27T09:01:05;8.07;;;5.00;;
13475;SDS011;6810;63.824;20.288;2022-11-27T09:03:53;7.60;;;4.77;;
13475;SDS011;6810;63.824;20.288;2022-11-27T09:06:41;7.17;;;4.63;;
13475;SDS011;6810;63.824;20.288;2022-11-27T09:09:27;7.33;;;5.10;;
13475;SDS011;6810;63.824;20.288;2022-11-27T09:12:14;8.00;;;4.40;;
13475;SDS011;6810;63.824;20.288;2022-11-27T09:15:08;7.70;;;4.87;;
13475;SDS011;6810;63.824;20.288;2022-11-27T09:17:58;9.07;;;4.87;;
13475;SDS011;6810;63.824;20.288;2022-11-27T09:20:53;7.30;;;5.20;;
13475;SDS011;6810;63.824;20.288;2022-11-27T09:23:46;7.30;;;5.23;;
13475;SDS011;6810;63.824;20.288;2022-11-27T09:26:37;7.83;;;5.33;;
13475;SDS011;6810;63.824;20.288;2022-11-27T09:29:04;7.27;;;5.00;;
13475;SDS011;6810;63.824;20.288;2022-11-27T09:31:31;7.30;;;4.30;;
13475;SDS011;6810;63.824;20.288;2022-11-27T09:33:58;7.77;;;5.23;;
13475;SDS011;6810;63.824;20.288;2022-11-27T09:36:25;6.37;;;4.73;;
13475;SDS011;6810;63.824;20.288;2022-11-27T09:38:52;8.83;;;4.67;;
13475;SDS011;6810;63.824;20.288;2022-11-27T09:44:44;5.17;;;3.90;;
13475;SDS011;6810;63.824;20.288;2022-11-27T09:50:38;7.67;;;4.77;;
13475;SDS011;6810;63.824;20.288;2022-11-27T09:56:52;5.53;;;4.13;;
13475;SDS011;6810;63.824;20.288;2022-11-27T09:59:45;6.57;;;4.63;;
13475;SDS011;6810;63.824;20.288;2022-11-27T10:02:35;7.23;;;4.30;;
13475;SDS011;6810;63.824;20.288;2022-11-27T10:05:28;5.83;;;3.77;;
13475;SDS011;6810;63.824;20.288;2022-11-27T10:15:04;5.37;;;3.97;;
13475;SDS011;6810;63.824;20.288;2022-11-27T10:17:56;6.27;;;4.57;;
13475;SDS011;6810;63.824;20.288;2022-11-27T10:20:50;5.60;;;3.80;;
13475;SDS011;6810;63.824;20.288;2022-11-27T10:26:58;6.87;;;4.20;;
13475;SDS011;6810;63.824;20.288;2022-11-27T10:29:50;4.83;;;3.43;;
13475;SDS011;6810;63.824;20.288;2022-11-27T10:32:39;5.20;;;3.87;;
13475;SDS011;6810;63.824;20.288;2022-11-27T10:35:29;6.23;;;3.90;;
13475;SDS011;6810;63.824;20.288;2022-11-27T10:38:18;4.80;;;3.67;;
13475;SDS011;6810;63.824;20.288;2022-11-27T10:41:11;5.97;;;3.50;;
13475;SDS011;6810;63.824;20.288;2022-11-27T10:47:09;5.67;;;4.10;;
13475;SDS011;6810;63.824;20.288;2022-11-27T10:49:59;4.63;;;3.47;;
13475;SDS011;6810;63.824;20.288;2022-11-27T10:52:49;5.50;;;4.00;;
13475;SDS011;6810;63.824;20.288;2022-11-27T10:58:47;5.37;;;3.87;;
13475;SDS011;6810;63.824;20.288;2022-11-27T11:01:49;5.83;;;4.00;;
13475;SDS011;6810;63.824;20.288;2022-11-27T11:04:37;5.53;;;3.60;;
13475;SDS011;6810;63.824;20.288;2022-11-27T11:11:02;5.17;;;3.57;;
13475;SDS011;6810;63.824;20.288;2022-11-27T11:13:51;5.60;;;3.93;;
13475;SDS011;6810;63.824;20.288;2022-11-27T11:16:41;5.93;;;3.70;;
13475;SDS011;6810;63.824;20.288;2022-11-27T11:19:30;5.90;;;3.80;;
13475;SDS011;6810;63.824;20.288;2022-11-27T11:22:19;5.10;;;3.47;;
13475;SDS011;6810;63.824;20.288;2022-11-27T11:25:12;5.83;;;3.77;;
13475;SDS011;6810;63.824;20.288;2022-11-27T11:28:03;4.47;;;3.53;;
13475;SDS011;6810;63.824;20.288;2022-11-27T11:30:57;5.40;;;4.03;;
13475;SDS011;6810;63.824;20.288;2022-11-27T11:33:49;4.77;;;3.47;;
13475;SDS011;6810;63.824;20.288;2022-11-27T11:36:51;4.83;;;3.57;;
13475;SDS011;6810;63.824;20.288;2022-11-27T11:39:45;4.93;;;3.77;;
13475;SDS011;6810;63.824;20.288;2022-11-27T11:42:59;5.80;;;3.80;;
13475;SDS011;6810;63.824;20.288;2022-11-27T11:45:48;5.57;;;3.90;;
13475;SDS011;6810;63.824;20.288;2022-11-27T11:48:35;4.80;;;3.30;;
13475;SDS011;6810;63.824;20.288;2022-11-27T11:51:25;5.57;;;4.20;;
13475;SDS011;6810;63.824;20.288;2022-11-27T12:00:44;4.87;;;3.50;;
13475;SDS011;6810;63.824;20.288;2022-11-27T12:10:12;6.37;;;4.07;;
13475;SDS011;6810;63.824;20.288;2022-11-27T12:22:28;5.53;;;3.73;;
13475;SDS011;6810;63.824;20.288;2022-11-27T12:34:35;5.60;;;3.70;;
13475;SDS011;6810;63.824;20.288;2022-11-27T12:43:40;5.20;;;3.77;;
13475;SDS011;6810;63.824;20.288;2022-11-27T12:46:39;5.10;;;3.80;;
13475;SDS011;6810;63.824;20.288;2022-11-27T12:49:39;5.90;;;3.73;;
13475;SDS011;6810;63.824;20.288;2022-11-27T12:52:31;4.20;;;3.37;;
13475;SDS011;6810;63.824;20.288;2022-11-27T12:55:24;5.57;;;3.90;;
13475;SDS011;6810;63.824;20.288;2022-11-27T12:58:25;4.73;;;3.70;;
13475;SDS011;6810;63.824;20.288;2022-11-27T13:01:35;4.87;;;3.50;;
13475;SDS011;6810;63.824;20.288;2022-11-27T13:04:33;4.80;;;3.70;;
13475;SDS011;6810;63.824;20.288;2022-11-27T13:07:28;6.13;;;4.03;;
13475;SDS011;6810;63.824;20.288;2022-11-27T13:13:22;5.27;;;3.60;;
13475;SDS011;6810;63.824;20.288;2022-11-27T13:16:29;6.40;;;4.00;;
13475;SDS011;6810;63.824;20.288;2022-11-27T13:22:27;5.83;;;3.70;;
13475;SDS011;6810;63.824;20.288;2022-11-27T13:25:17;4.40;;;3.67;;
13475;SDS011;6810;63.824;20.288;2022-11-27T13:28:04;6.47;;;3.93;;
13475;SDS011;6810;63.824;20.288;2022-11-27T13:30:52;4.77;;;3.60;;
13475;SDS011;6810;63.824;20.288;2022-11-27T13:33:43;4.77;;;3.73;;
13475;SDS011;6810;63.824;20.288;2022-11-27T13:36:35;4.93;;;3.53;;
13475;SDS011;6810;63.824;20.288;2022-11-27T13:42:19;5.80;;;4.10;;
13475;SDS011;6810;63.824;20.288;2022-11-27T13:45:07;5.47;;;4.40;;
13475;SDS011;6810;63.824;20.288;2022-11-27T13:48:14;6.93;;;4.23;;
13475;SDS011;6810;63.824;20.288;2022-11-27T13:51:10;4.47;;;3.67;;
13475;SDS011;6810;63.824;20.288;2022-11-27T13:54:11;4.53;;;3.70;;
13475;SDS011;6810;63.824;20.288;2022-11-27T13:57:12;5.10;;;3.73;;
13475;SDS011;6810;63.824;20.288;2022-11-27T14:00:12;5.07;;;3.77;;
13475;SDS011;6810;63.824;20.288;2022-11-27T14:02:59;5.63;;;4.00;;
13475;SDS011;6810;63.824;20.288;2022-11-27T14:05:46;5.63;;;3.73;;
13475;SDS011;6810;63.824;20.288;2022-11-27T14:08:33;5.60;;;4.10;;
13475;SDS011;6810;63.824;20.288;2022-11-27T14:11:28;5.83;;;3.97;;
13475;SDS011;6810;63.824;20.288;2022-11-27T14:14:22;4.47;;;3.40;;
13475;SDS011;6810;63.824;20.288;2022-11-27T14:23:02;5.57;;;3.77;;
13475;SDS011;6810;63.824;20.288;2022-11-27T14:25:39;5.00;;;3.73;;
13475;SDS011;6810;63.824;20.288;2022-11-27T14:28:26;5.90;;;4.00;;
13475;SDS011;6810;63.824;20.288;2022-11-27T14:31:23;4.50;;;3.53;;
13475;SDS011;6810;63.824;20.288;2022-11-27T14:34:29;6.23;;;3.93;;
13475;SDS011;6810;63.824;20.288;2022-11-27T14:37:19;5.40;;;4.03;;
13475;SDS011;6810;63.824;20.288;2022-11-27T14:40:14;6.40;;;4.17;;
13475;SDS011;6810;63.824;20.288;2022-11-27T14:43:08;5.77;;;3.50;;
13475;SDS011;6810;63.824;20.288;2022-11-27T14:46:03;6.67;;;3.90;;
13475;SDS011;6810;63.824;20.288;2022-11-27T14:48:52;7.33;;;4.40;;
13475;SDS011;6810;63.824;20.288;2022-11-27T14:51:40;4.60;;;3.83;;
13475;SDS011;6810;63.824;20.288;2022-11-27T14:54:29;4.77;;;3.63;;
13475;SDS011;6810;63.824;20.288;2022-11-27T14:57:23;5.43;;;3.83;;
13475;SDS011;6810;63.824;20.288;2022-11-27T15:00:25;6.20;;;4.17;;
13475;SDS011;6810;63.824;20.288;2022-11-27T15:03:14;6.07;;;3.70;;
13475;SDS011;6810;63.824;20.288;2022-11-27T15:06:04;6.67;;;3.77;;
13475;SDS011;6810;63.824;20.288;2022-11-27T15:08:52;5.67;;;4.20;;
13475;SDS011;6810;63.824;20.288;2022-11-27T15:11:40;5.40;;;3.97;;
13475;SDS011;6810;63.824;20.288;2022-11-27T15:14:21;6.23;;;3.90;;
13475;SDS011;6810;63.824;20.288;2022-11-27T15:17:15;5.23;;;3.73;;
13475;SDS011;6810;63.824;20.288;2022-11-27T15:20:15;6.00;;;3.97;;
13475;SDS011;6810;63.824;20.288;2022-11-27T15:23:15;5.60;;;3.87;;
13475;SDS011;6810;63.824;20.288;2022-11-27T15:28:54;6.17;;;4.10;;
13475;SDS011;6810;63.824;20.288;2022-11-27T15:31:41;4.73;;;3.70;;
13475;SDS011;6810;63.824;20.288;2022-11-27T15:34:36;5.23;;;3.90;;
13475;SDS011;6810;63.824;20.288;2022-11-27T15:40:20;5.87;;;3.93;;
13475;SDS011;6810;63.824;20.288;2022-11-27T15:43:18;5.73;;;3.93;;
13475;SDS011;6810;63.824;20.288;2022-11-27T15:46:05;6.23;;;3.83;;
13475;SDS011;6810;63.824;20.288;2022-11-27T15:48:52;5.80;;;3.87;;
13475;SDS011;6810;63.824;20.288;2022-11-27T15:51:19;5.90;;;4.03;;
13475;SDS011;6810;63.824;20.288;2022-11-27T15:54:06;7.57;;;3.87;;
13475;SDS011;6810;63.824;20.288;2022-11-27T15:56:33;4.77;;;3.47;;
13475;SDS011;6810;63.824;20.288;2022-11-27T15:59:20;4.60;;;3.70;;
13475;SDS011;6810;63.824;20.288;2022-11-27T16:02:07;6.07;;;3.83;;
13475;SDS011;6810;63.824;20.288;2022-11-27T16:04:56;6.53;;;3.70;;
13475;SDS011;6810;63.824;20.288;2022-11-27T16:07:42;5.37;;;3.40;;
13475;SDS011;6810;63.824;20.288;2022-11-27T16:10:29;5.17;;;3.63;;
13475;SDS011;6810;63.824;20.288;2022-11-27T16:13:16;6.87;;;4.10;;
13475;SDS011;6810;63.824;20.288;2022-11-27T16:16:04;4.60;;;3.43;;
13475;SDS011;6810;63.824;20.288;2022-11-27T16:18:56;5.43;;;3.90;;
13475;SDS011;6810;63.824;20.288;2022-11-27T16:21:44;4.83;;;3.50;;
13475;SDS011;6810;63.824;20.288;2022-11-27T16:24:31;4.97;;;3.57;;
13475;SDS011;6810;63.824;20.288;2022-11-27T16:27:18;5.83;;;3.80;;
13475;SDS011;6810;63.824;20.288;2022-11-27T16:30:05;5.17;;;3.77;;
13475;SDS011;6810;63.824;20.288;2022-11-27T16:32:52;6.00;;;3.93;;
13475;SDS011;6810;63.824;20.288;2022-11-27T16:35:39;4.77;;;3.70;;
13475;SDS011;6810;63.824;20.288;2022-11-27T16:38:26;8.23;;;4.27;;
13475;SDS011;6810;63.824;20.288;2022-11-27T16:41:14;5.60;;;4.30;;
13475;SDS011;6810;63.824;20.288;2022-11-27T16:44:07;6.77;;;4.20;;
13475;SDS011;6810;63.824;20.288;2022-11-27T16:46:36;7.10;;;4.33;;
13475;SDS011;6810;63.824;20.288;2022-11-27T16:49:04;7.57;;;4.37;;
13475;SDS011;6810;63.824;20.288;2022-11-27T16:51:51;6.80;;;4.30;;
13475;SDS011;6810;63.824;20.288;2022-11-27T16:54:38;5.97;;;4.47;;
13475;SDS011;6810;63.824;20.288;2022-11-27T16:57:26;8.13;;;5.20;;
13475;SDS011;6810;63.824;20.288;2022-11-27T17:00:13;6.43;;;3.70;;
13475;SDS011;6810;63.824;20.288;2022-11-27T17:03:01;6.43;;;4.57;;
13475;SDS011;6810;63.824;20.288;2022-11-27T17:05:47;8.87;;;5.33;;
13475;SDS011;6810;63.824;20.288;2022-11-27T17:08:35;6.13;;;4.20;;
13475;SDS011;6810;63.824;20.288;2022-11-27T17:11:24;6.27;;;4.73;;
13475;SDS011;6810;63.824;20.288;2022-11-27T17:14:12;6.80;;;5.00;;
13475;SDS011;6810;63.824;20.288;2022-11-27T17:17:00;4.90;;;4.27;;
13475;SDS011;6810;63.824;20.288;2022-11-27T17:19:28;6.80;;;4.57;;
13475;SDS011;6810;63.824;20.288;2022-11-27T17:21:57;6.63;;;5.10;;
13475;SDS011;6810;63.824;20.288;2022-11-27T17:24:23;6.77;;;4.50;;
13475;SDS011;6810;63.824;20.288;2022-11-27T17:27:12;7.67;;;4.90;;
13475;SDS011;6810;63.824;20.288;2022-11-27T17:29:58;9.83;;;5.80;;
13475;SDS011;6810;63.824;20.288;2022-11-27T17:32:45;8.87;;;5.50;;
13475;SDS011;6810;63.824;20.288;2022-11-27T17:35:32;8.13;;;5.43;;
13475;SDS011;6810;63.824;20.288;2022-11-27T17:38:19;6.47;;;4.63;;
13475;SDS011;6810;63.824;20.288;2022-11-27T17:41:10;8.37;;;4.83;;
13475;SDS011;6810;63.824;20.288;2022-11-27T17:43:58;7.17;;;4.60;;
13475;SDS011;6810;63.824;20.288;2022-11-27T17:46:44;6.10;;;4.77;;
13475;SDS011;6810;63.824;20.288;2022-11-27T17:49:31;8.37;;;4.93;;
13475;SDS011;6810;63.824;20.288;2022-11-27T17:52:18;8.37;;;4.90;;
13475;SDS011;6810;63.824;20.288;2022-11-27T17:55:05;7.47;;;4.53;;
13475;SDS011;6810;63.824;20.288;2022-11-27T17:57:53;7.93;;;4.90;;
13475;SDS011;6810;63.824;20.288;2022-11-27T18:00:40;6.87;;;4.67;;
13475;SDS011;6810;63.824;20.288;2022-11-27T18:03:27;7.53;;;4.47;;
13475;SDS011;6810;63.824;20.288;2022-11-27T18:06:15;6.67;;;4.67;;
13475;SDS011;6810;63.824;20.288;2022-11-27T18:09:03;6.70;;;4.57;;
13475;SDS011;6810;63.824;20.288;2022-11-27T18:11:51;9.10;;;4.87;;
13475;SDS011;6810;63.824;20.288;2022-11-27T18:14:38;8.20;;;4.77;;
13475;SDS011;6810;63.824;20.288;2022-11-27T18:17:27;8.50;;;4.60;;
13475;SDS011;6810;63.824;20.288;2022-11-27T18:20:14;8.10;;;4.80;;
13475;SDS011;6810;63.824;20.288;2022-11-27T18:23:01;8.73;;;4.70;;
13475;SDS011;6810;63.824;20.288;2022-11-27T18:25:48;8.53;;;4.53;;
13475;SDS011;6810;63.824;20.288;2022-11-27T18:28:35;6.10;;;4.43;;
13475;SDS011;6810;63.824;20.288;2022-11-27T18:31:22;6.43;;;4.30;;
13475;SDS011;6810;63.824;20.288;2022-11-27T18:34:10;5.87;;;4.30;;
13475;SDS011;6810;63.824;20.288;2022-11-27T18:36:57;7.40;;;4.50;;
13475;SDS011;6810;63.824;20.288;2022-11-27T18:39:44;5.97;;;4.27;;
13475;SDS011;6810;63.824;20.288;2022-11-27T18:42:30;7.80;;;4.80;;